createdAt,value
2022-12-12T00:02:08.453Z,24.00
2022-12-12T00:04:40.819Z,22.10
2022-12-12T00:07:13.185Z,23.90
2022-12-12T00:09:45.672Z,20.80
2022-12-12T00:12:18.059Z,21.70
2022-12-12T00:14:50.319Z,22.00
2022-12-12T00:17:22.573Z,22.70
2022-12-12T00:19:55.121Z,22.20
2022-12-12T00:22:27.524Z,24.40
2022-12-12T00:24:59.907Z,25.80
2022-12-12T00:27:34.376Z,23.00
2022-12-12T00:30:08.496Z,23.60
2022-12-12T00:32:40.754Z,21.50
2022-12-12T00:35:13.374Z,23.30
2022-12-12T00:37:45.924Z,23.00
2022-12-12T00:40:18.255Z,19.30
2022-12-12T00:42:50.649Z,24.00
2022-12-12T00:45:23.091Z,20.90
2022-12-12T00:47:56.129Z,23.90
2022-12-12T00:50:28.889Z,23.00
2022-12-12T00:53:01.215Z,23.60
2022-12-12T00:55:33.594Z,23.40
2022-12-12T00:58:05.971Z,20.20
2022-12-12T01:00:41.363Z,20.50
2022-12-12T01:03:13.589Z,18.30
2022-12-12T01:05:45.852Z,22.90
2022-12-12T01:08:18.257Z,19.30
2022-12-12T01:10:50.598Z,22.60
2022-12-12T01:13:22.983Z,19.90
2022-12-12T01:15:55.600Z,20.60
2022-12-12T01:18:27.907Z,21.20
2022-12-12T01:21:01.067Z,23.70
2022-12-12T01:23:33.311Z,21.20
2022-12-12T01:26:08.341Z,21.10
2022-12-12T01:28:41.327Z,22.30
2022-12-12T01:31:14.362Z,21.70
2022-12-12T01:33:47.020Z,25.20
2022-12-12T01:36:25.611Z,22.50
2022-12-12T01:38:59.556Z,21.50
2022-12-12T01:41:31.810Z,18.10
2022-12-12T01:44:08.572Z,21.00
2022-12-12T01:46:46.206Z,20.50
2022-12-12T01:49:22.907Z,24.10
2022-12-12T01:51:59.913Z,24.10
2022-12-12T01:54:35.404Z,19.10
2022-12-12T01:57:11.434Z,18.90
2022-12-12T01:59:44.532Z,22.40
2022-12-12T02:02:17.445Z,17.70
2022-12-12T02:04:49.758Z,23.60
2022-12-12T02:07:22.072Z,21.20
2022-12-12T02:09:54.306Z,21.50
2022-12-12T02:12:26.534Z,20.80
2022-12-12T02:14:59.038Z,18.60
2022-12-12T02:17:48.256Z,16.80
2022-12-12T02:20:53.280Z,22.50
2022-12-12T02:24:01.913Z,19.70
2022-12-12T02:27:18.906Z,21.00
2022-12-12T02:30:15.356Z,17.20
2022-12-12T02:33:15.769Z,22.30
2022-12-12T02:35:58.273Z,21.30
2022-12-12T02:38:35.456Z,16.40
2022-12-12T02:41:21.960Z,19.50
2022-12-12T02:44:04.781Z,18.00
2022-12-12T02:46:46.211Z,21.60
2022-12-12T02:49:23.755Z,21.00
2022-12-12T02:51:58.058Z,19.90
2022-12-12T02:54:30.492Z,19.50
2022-12-12T02:57:04.156Z,21.30
2022-12-12T02:59:38.780Z,20.80
2022-12-12T03:02:44.530Z,24.20
2022-12-12T03:06:00.382Z,22.60
2022-12-12T03:08:46.254Z,20.90
2022-12-12T03:11:27.932Z,15.30
2022-12-12T03:14:08.054Z,22.60
2022-12-12T03:16:45.999Z,21.50
2022-12-12T03:19:26.235Z,21.50
2022-12-12T03:22:04.854Z,22.40
2022-12-12T03:24:45.301Z,20.60
2022-12-12T03:27:24.245Z,18.10
2022-12-12T03:29:59.498Z,20.90
2022-12-12T03:32:39.821Z,19.10
2022-12-12T03:35:17.835Z,23.80
2022-12-12T03:37:53.227Z,22.40
2022-12-12T03:40:29.973Z,20.50
2022-12-12T03:43:06.734Z,22.30
2022-12-12T03:45:45.564Z,19.10
2022-12-12T03:48:21.547Z,18.90
2022-12-12T03:50:56.855Z,20.30
2022-12-12T03:53:34.023Z,19.80
2022-12-12T03:56:11.805Z,24.80
2022-12-12T03:58:51.422Z,20.50
2022-12-12T04:01:28.981Z,21.00
2022-12-12T04:04:05.956Z,22.80
2022-12-12T04:06:40.638Z,17.50
2022-12-12T04:09:34.412Z,20.90
2022-12-12T04:12:32.137Z,23.50
2022-12-12T04:15:20.658Z,23.50
2022-12-12T04:18:01.728Z,22.60
2022-12-12T04:21:03.855Z,19.40
2022-12-12T04:23:46.459Z,19.40
2022-12-12T04:26:42.475Z,17.50
2022-12-12T04:29:39.069Z,20.70
2022-12-12T04:32:18.318Z,20.00
2022-12-12T04:34:55.004Z,24.90
2022-12-12T04:37:31.758Z,18.60
2022-12-12T04:40:08.123Z,21.10
2022-12-12T04:42:46.044Z,19.10
2022-12-12T04:45:21.814Z,21.80
2022-12-12T04:47:57.118Z,20.00
2022-12-12T04:50:33.661Z,22.50
2022-12-12T04:53:14.878Z,19.60
2022-12-12T04:55:54.130Z,23.80
2022-12-12T04:58:26.983Z,27.00
2022-12-12T05:01:08.529Z,24.80
2022-12-12T05:03:49.313Z,20.40
2022-12-12T05:06:31.860Z,22.60
2022-12-12T05:09:05.550Z,22.20
2022-12-12T05:11:37.903Z,21.20
2022-12-12T05:14:11.913Z,22.40
2022-12-12T05:16:48.612Z,21.70
2022-12-12T05:19:20.955Z,16.90
2022-12-12T05:21:53.466Z,18.60
2022-12-12T05:24:31.499Z,18.40
2022-12-12T05:27:03.921Z,19.50
2022-12-12T05:29:36.289Z,18.40
2022-12-12T05:32:08.589Z,17.20
2022-12-12T05:34:40.865Z,18.90
2022-12-12T05:37:13.238Z,21.10
2022-12-12T05:39:45.462Z,24.10
2022-12-12T05:42:17.786Z,24.80
2022-12-12T05:44:49.990Z,22.70
2022-12-12T05:47:22.343Z,20.10
2022-12-12T05:49:54.591Z,19.40
2022-12-12T05:52:27.606Z,20.20
2022-12-12T05:54:59.869Z,20.10
2022-12-12T05:57:32.188Z,17.80
2022-12-12T06:00:05.235Z,19.50
2022-12-12T06:02:37.588Z,19.60
2022-12-12T06:05:11.752Z,17.50
2022-12-12T06:07:44.244Z,17.90
2022-12-12T06:10:17.515Z,21.40
2022-12-12T06:12:49.742Z,23.00
2022-12-12T06:15:22.351Z,20.00
2022-12-12T06:17:55.184Z,17.40
2022-12-12T06:20:27.620Z,18.10
2022-12-12T06:22:59.888Z,20.10
2022-12-12T06:25:32.490Z,20.80
2022-12-12T06:28:04.779Z,20.40
2022-12-12T06:30:37.022Z,22.60
2022-12-12T06:33:09.351Z,21.80
2022-12-12T06:35:41.662Z,21.30
2022-12-12T06:38:14.030Z,19.40
2022-12-12T06:40:46.300Z,17.90
2022-12-12T06:43:18.550Z,21.00
2022-12-12T06:45:51.083Z,19.20
2022-12-12T06:48:23.325Z,21.40
2022-12-12T06:50:55.682Z,18.30
2022-12-12T06:53:28.083Z,16.40
2022-12-12T06:56:00.311Z,17.30
2022-12-12T06:58:32.560Z,21.60
2022-12-12T07:01:05.522Z,18.80
2022-12-12T07:03:38.043Z,16.20
2022-12-12T07:06:11.285Z,18.00
2022-12-12T07:08:43.599Z,18.70
2022-12-12T07:11:18.334Z,17.30
2022-12-12T07:13:52.001Z,16.50
2022-12-12T07:16:24.769Z,18.00
2022-12-12T07:18:57.243Z,20.30
2022-12-12T07:21:29.531Z,17.30
2022-12-12T07:24:01.903Z,19.70
2022-12-12T07:26:34.186Z,21.70
2022-12-12T07:29:06.454Z,16.40
2022-12-12T07:31:38.733Z,15.90
2022-12-12T07:34:11.302Z,17.40
2022-12-12T07:36:43.514Z,18.40
2022-12-12T07:39:20.683Z,18.10
2022-12-12T07:41:53.409Z,18.10
2022-12-12T07:44:25.763Z,17.50
2022-12-12T07:47:00.656Z,17.40
2022-12-12T07:49:33.286Z,17.30
2022-12-12T07:52:05.736Z,18.70
2022-12-12T07:54:38.135Z,16.60
2022-12-12T07:57:10.508Z,16.90
2022-12-12T07:59:42.849Z,16.30
2022-12-12T08:02:15.278Z,17.90
2022-12-12T08:04:47.690Z,17.40
2022-12-12T08:07:20.094Z,13.90
2022-12-12T08:09:52.388Z,16.70
2022-12-12T08:12:24.762Z,17.10
2022-12-12T08:14:57.415Z,16.70
2022-12-12T08:17:29.699Z,15.10
2022-12-12T08:20:02.005Z,13.40
2022-12-12T08:22:34.259Z,14.00
2022-12-12T08:25:08.378Z,17.00
2022-12-12T08:27:41.039Z,15.30
2022-12-12T08:30:14.429Z,12.50
2022-12-12T08:32:46.840Z,14.00
2022-12-12T08:35:19.700Z,18.70
2022-12-12T08:37:51.932Z,20.40
2022-12-12T08:40:24.381Z,14.10
2022-12-12T08:42:56.903Z,12.90
2022-12-12T08:45:29.198Z,19.20
2022-12-12T08:48:01.470Z,14.90
2022-12-12T08:50:33.818Z,17.30
2022-12-12T08:53:06.048Z,20.50
2022-12-12T08:55:38.375Z,14.70
2022-12-12T08:58:10.691Z,15.20
2022-12-12T09:00:43.945Z,17.00
2022-12-12T09:03:16.181Z,12.60
2022-12-12T09:05:49.066Z,18.50
2022-12-12T09:08:21.520Z,12.70
2022-12-12T09:10:53.899Z,11.40
2022-12-12T09:13:26.259Z,15.80
2022-12-12T09:15:58.848Z,11.30
2022-12-12T09:18:31.208Z,12.50
2022-12-12T09:21:03.783Z,15.20
2022-12-12T09:23:36.514Z,16.20
2022-12-12T09:26:10.742Z,13.00
2022-12-12T09:28:43.255Z,15.20
2022-12-12T09:31:16.316Z,13.70
2022-12-12T09:33:48.653Z,14.30
2022-12-12T09:36:21.553Z,18.20
2022-12-12T09:38:53.948Z,14.00
2022-12-12T09:41:28.194Z,11.70
2022-12-12T09:44:04.176Z,14.80
2022-12-12T09:46:40.826Z,13.40
2022-12-12T09:49:21.666Z,12.70
2022-12-12T09:51:55.899Z,16.40
2022-12-12T09:54:30.366Z,15.00
2022-12-12T09:57:13.695Z,17.60
2022-12-12T09:59:52.592Z,15.10
2022-12-12T10:02:52.331Z,12.50
2022-12-12T10:05:35.880Z,13.20
2022-12-12T10:08:16.572Z,18.00
2022-12-12T10:10:53.503Z,19.20
2022-12-12T10:13:29.483Z,16.00
2022-12-12T10:16:08.127Z,16.00
2022-12-12T10:18:47.025Z,13.90
2022-12-12T10:21:23.738Z,16.80
2022-12-12T10:24:04.747Z,10.90
2022-12-12T10:26:37.015Z,13.00
2022-12-12T10:29:16.347Z,11.40
2022-12-12T10:32:00.433Z,12.30
2022-12-12T10:34:49.044Z,12.40
2022-12-12T10:37:38.230Z,9.80
2022-12-12T10:40:25.551Z,12.10
2022-12-12T10:43:02.840Z,10.40
2022-12-12T10:45:48.399Z,13.80
2022-12-12T10:48:20.887Z,13.50
2022-12-12T10:50:56.118Z,8.50
2022-12-12T10:53:29.388Z,8.80
2022-12-12T10:56:05.229Z,10.50
2022-12-12T11:01:33.001Z,11.80
2022-12-12T11:04:15.645Z,12.20
2022-12-12T11:06:52.055Z,9.90
2022-12-12T11:09:26.599Z,11.90
2022-12-12T11:12:03.948Z,12.20
2022-12-12T11:14:38.996Z,12.50
2022-12-12T11:17:25.840Z,13.50
2022-12-12T11:20:01.357Z,10.60
2022-12-12T11:22:35.334Z,10.80
2022-12-12T11:25:08.581Z,11.20
2022-12-12T11:27:42.862Z,13.80
2022-12-12T11:30:25.870Z,18.90
2022-12-12T11:32:59.112Z,12.40
2022-12-12T11:35:35.236Z,13.80
2022-12-12T11:38:15.111Z,11.80
2022-12-12T11:40:56.991Z,10.60
2022-12-12T11:43:31.335Z,14.70
2022-12-12T11:46:08.202Z,14.30
2022-12-12T11:48:59.367Z,17.80
2022-12-12T11:51:38.422Z,11.60
2022-12-12T11:54:15.618Z,10.80
2022-12-12T11:56:54.220Z,15.00
2022-12-12T11:59:59.570Z,14.50
2022-12-12T12:02:53.177Z,16.30
2022-12-12T12:05:36.555Z,16.00
2022-12-12T12:08:23.375Z,15.10
2022-12-12T12:11:06.393Z,16.70
2022-12-12T12:13:55.154Z,14.90
2022-12-12T12:16:37.288Z,12.60
2022-12-12T12:19:18.275Z,14.20
2022-12-12T12:22:02.598Z,14.90
2022-12-12T12:24:55.141Z,14.30
2022-12-12T12:27:34.483Z,20.00
2022-12-12T12:30:25.158Z,18.90
2022-12-12T12:33:24.779Z,14.00
2022-12-12T12:36:10.809Z,13.50
2022-12-12T12:39:01.134Z,15.10
2022-12-12T12:41:52.219Z,18.20
2022-12-12T12:44:32.976Z,16.00
2022-12-12T12:47:15.674Z,16.80
2022-12-12T12:49:52.345Z,25.20
2022-12-12T12:52:31.280Z,20.80
2022-12-12T12:55:05.229Z,13.50
2022-12-12T12:57:41.743Z,17.50
2022-12-12T13:00:20.837Z,16.50
2022-12-12T13:02:59.042Z,17.90
2022-12-12T13:05:36.643Z,17.30
2022-12-12T13:08:20.604Z,18.40
2022-12-12T13:10:57.212Z,15.90
2022-12-12T13:13:32.439Z,19.80
2022-12-12T13:16:10.606Z,17.50
2022-12-12T13:18:46.978Z,19.10
2022-12-12T13:21:26.458Z,15.40
2022-12-12T13:24:05.677Z,19.00
2022-12-12T13:26:46.557Z,19.20
2022-12-12T13:29:33.852Z,19.60
2022-12-12T13:32:38.673Z,19.00
2022-12-12T13:35:15.806Z,19.80
2022-12-12T13:37:52.427Z,17.30
2022-12-12T13:40:31.647Z,17.20
2022-12-12T13:43:09.964Z,14.90
2022-12-12T13:45:45.763Z,18.30
2022-12-12T13:48:47.651Z,20.70
2022-12-12T13:51:37.506Z,19.80
2022-12-12T13:54:49.237Z,23.20
2022-12-12T13:58:02.944Z,20.30
2022-12-12T14:00:36.637Z,17.10
2022-12-12T14:03:17.031Z,17.10
2022-12-12T14:05:50.756Z,18.40
2022-12-12T14:08:29.706Z,15.60
2022-12-12T14:11:04.822Z,19.90
2022-12-12T14:13:45.591Z,18.00
2022-12-12T14:16:28.051Z,17.00
2022-12-12T14:19:07.292Z,14.20
2022-12-12T14:21:46.529Z,19.30
2022-12-12T14:24:55.989Z,18.50
2022-12-12T14:28:04.521Z,17.70
2022-12-12T14:30:55.531Z,18.80
2022-12-12T14:34:11.605Z,21.30
2022-12-12T14:37:19.724Z,19.10
2022-12-12T14:40:05.695Z,22.50
2022-12-12T14:43:18.496Z,20.00
2022-12-12T14:45:53.050Z,16.10
2022-12-12T14:48:27.423Z,17.50
2022-12-12T14:51:06.499Z,20.00
2022-12-12T14:53:46.934Z,19.40
2022-12-12T14:56:21.247Z,21.30
2022-12-12T14:59:03.161Z,16.70
2022-12-12T15:01:37.578Z,17.00
2022-12-12T15:04:13.619Z,22.30
2022-12-12T15:06:46.628Z,16.40
2022-12-12T15:09:30.506Z,17.30
2022-12-12T15:12:16.685Z,17.10
2022-12-12T15:14:57.883Z,17.60
2022-12-12T15:17:33.084Z,22.10
2022-12-12T15:20:09.956Z,20.40
2022-12-12T15:22:54.429Z,16.20
2022-12-12T15:25:29.042Z,19.80
2022-12-12T15:28:02.664Z,17.20
2022-12-12T15:30:37.697Z,27.00
2022-12-12T15:33:17.553Z,20.50
2022-12-12T15:35:59.519Z,19.60
2022-12-12T15:38:34.451Z,20.00
2022-12-12T15:41:13.551Z,21.70
2022-12-12T15:43:46.587Z,22.40
2022-12-12T15:46:19.276Z,21.70
2022-12-12T15:48:52.146Z,18.50
2022-12-12T15:51:29.935Z,17.50
2022-12-12T15:54:02.679Z,21.10
2022-12-12T15:56:35.004Z,17.40
2022-12-12T15:59:23.418Z,18.20
2022-12-12T16:01:56.135Z,18.80
2022-12-12T16:04:28.904Z,15.90
2022-12-12T16:07:22.490Z,16.20
2022-12-12T16:10:03.295Z,15.00
2022-12-12T16:13:03.366Z,18.50
2022-12-12T16:15:40.124Z,15.20
2022-12-12T16:18:22.019Z,17.10
2022-12-12T16:20:56.961Z,14.50
2022-12-12T16:23:33.419Z,9.40
2022-12-12T16:26:05.729Z,12.70
2022-12-12T16:28:38.897Z,9.20
2022-12-12T16:31:18.662Z,9.40
2022-12-12T16:33:51.094Z,9.90
2022-12-12T16:36:23.456Z,14.80
2022-12-12T16:38:55.786Z,10.90
2022-12-12T16:41:28.562Z,10.20
2022-12-12T16:44:00.871Z,8.60
2022-12-12T16:46:33.122Z,10.80
2022-12-12T16:49:07.417Z,11.80
2022-12-12T16:51:44.034Z,10.80
2022-12-12T16:54:19.144Z,8.90
2022-12-12T16:56:52.803Z,12.90
2022-12-12T16:59:25.164Z,9.00
2022-12-12T17:01:57.460Z,10.90
2022-12-12T17:04:30.058Z,12.30
2022-12-12T17:07:02.717Z,12.20
2022-12-12T17:09:34.974Z,11.40
2022-12-12T17:12:09.045Z,12.20
2022-12-12T17:14:41.319Z,10.50
2022-12-12T17:17:13.614Z,11.80
2022-12-12T17:19:45.915Z,11.30
2022-12-12T17:22:18.645Z,10.00
2022-12-12T17:24:51.094Z,10.00
2022-12-12T17:27:23.536Z,11.40
2022-12-12T17:29:55.776Z,10.20
2022-12-12T17:32:30.335Z,14.20
2022-12-12T17:35:02.681Z,12.50
2022-12-12T17:37:35.508Z,11.60
2022-12-12T17:40:25.231Z,13.80
2022-12-12T17:42:57.503Z,12.00
2022-12-12T17:45:29.925Z,13.50
2022-12-12T17:48:04.733Z,12.10
2022-12-12T17:50:41.493Z,13.00
2022-12-12T17:53:14.300Z,10.70
2022-12-12T17:55:53.045Z,12.10
2022-12-12T17:58:29.972Z,13.20
2022-12-12T18:01:09.928Z,13.40
2022-12-12T18:03:43.041Z,13.80
2022-12-12T18:06:16.430Z,11.50
2022-12-12T18:08:49.639Z,11.30
2022-12-12T18:11:24.883Z,13.20
2022-12-12T18:13:58.068Z,14.60
2022-12-12T18:16:32.204Z,10.10
2022-12-12T18:19:04.954Z,13.10
2022-12-12T18:24:30.503Z,12.70
2022-12-12T18:27:04.079Z,17.90
2022-12-12T18:29:36.594Z,15.20
2022-12-12T18:32:09.042Z,13.30
2022-12-12T18:34:42.380Z,11.80
2022-12-12T18:37:15.051Z,13.30
2022-12-12T18:39:47.442Z,11.60
2022-12-12T18:42:19.746Z,15.20
2022-12-12T18:44:51.971Z,13.30
2022-12-12T18:47:24.252Z,14.20
2022-12-12T18:49:56.623Z,15.10
2022-12-12T18:52:28.960Z,14.10
2022-12-12T18:55:01.216Z,15.30
2022-12-12T18:57:33.767Z,11.50
2022-12-12T19:00:08.711Z,12.20
2022-12-12T19:02:41.105Z,15.70
2022-12-12T19:05:13.618Z,14.50
2022-12-12T19:07:47.095Z,15.30
2022-12-12T19:10:20.034Z,13.20
2022-12-12T19:12:52.374Z,12.40
2022-12-12T19:15:24.744Z,12.60
2022-12-12T19:17:58.164Z,12.00
2022-12-12T19:20:30.392Z,14.60
2022-12-12T19:23:02.728Z,17.50
2022-12-12T19:25:42.634Z,17.40
2022-12-12T19:28:15.608Z,20.60
2022-12-12T19:30:47.868Z,16.30
2022-12-12T19:33:20.314Z,18.30
2022-12-12T19:35:55.660Z,20.00
2022-12-12T19:38:28.069Z,18.50
2022-12-12T19:41:05.497Z,17.20
2022-12-12T19:43:38.159Z,18.90
2022-12-12T19:46:13.350Z,18.00
2022-12-12T19:48:46.505Z,16.10
2022-12-12T19:51:21.262Z,19.60
2022-12-12T19:53:55.592Z,19.20
2022-12-12T19:56:29.705Z,21.00
2022-12-12T19:59:03.004Z,19.80
2022-12-12T20:01:37.211Z,19.30
2022-12-12T20:04:15.013Z,20.60
2022-12-12T20:06:49.380Z,20.40
2022-12-12T20:09:24.022Z,20.20
2022-12-12T20:11:57.137Z,19.50
2022-12-12T20:14:31.433Z,18.80
2022-12-12T20:17:04.073Z,20.60
2022-12-12T20:19:36.391Z,19.50
2022-12-12T20:22:08.629Z,17.30
2022-12-12T20:24:41.108Z,21.60
2022-12-12T20:27:15.366Z,19.30
2022-12-12T20:29:47.628Z,18.90
2022-12-12T20:32:19.884Z,21.00
2022-12-12T20:34:52.371Z,18.30
2022-12-12T20:37:24.601Z,16.00
2022-12-12T20:39:57.000Z,21.70
2022-12-12T20:42:29.270Z,18.80
2022-12-12T20:45:03.499Z,14.40
2022-12-12T20:47:36.525Z,18.60
2022-12-12T20:50:10.219Z,15.30
2022-12-12T20:52:43.706Z,18.30
2022-12-12T20:55:16.442Z,18.30
2022-12-12T20:57:48.922Z,16.30
2022-12-12T21:00:25.478Z,16.30
2022-12-12T21:03:00.382Z,15.20
2022-12-12T21:05:33.387Z,18.10
2022-12-12T21:08:05.980Z,17.30
2022-12-12T21:10:38.445Z,17.80
2022-12-12T21:13:10.805Z,19.20
2022-12-12T21:16:00.884Z,16.40
2022-12-12T21:18:33.188Z,16.30
2022-12-12T21:21:06.595Z,20.60
2022-12-12T21:23:39.301Z,20.90
2022-12-12T21:26:19.030Z,21.30
2022-12-12T21:28:53.667Z,25.70
2022-12-12T21:31:50.844Z,18.30
2022-12-12T21:34:25.297Z,18.40
2022-12-12T21:36:58.189Z,21.50
2022-12-12T21:39:31.787Z,16.00
2022-12-12T21:42:04.083Z,20.60
2022-12-12T21:44:40.022Z,17.80
2022-12-12T21:47:15.691Z,17.90
2022-12-12T21:49:47.930Z,18.10
2022-12-12T21:52:20.280Z,18.20
2022-12-12T21:55:13.225Z,16.20
2022-12-12T21:57:45.778Z,19.70
2022-12-12T22:00:19.172Z,20.40
2022-12-12T22:02:51.653Z,18.70
2022-12-12T22:05:24.039Z,18.80
2022-12-12T22:07:56.394Z,19.90
2022-12-12T22:10:29.263Z,21.10
2022-12-12T22:13:01.527Z,19.60
2022-12-12T22:16:01.537Z,21.10
2022-12-12T22:18:34.084Z,20.30
2022-12-12T22:21:09.598Z,20.50
2022-12-12T22:23:42.673Z,16.10
2022-12-12T22:26:21.235Z,18.60
2022-12-12T22:28:54.887Z,25.60
2022-12-12T22:31:28.873Z,18.20
2022-12-12T22:34:03.380Z,20.50
2022-12-12T22:36:54.339Z,24.10
2022-12-12T22:39:28.158Z,17.90
2022-12-12T22:42:00.671Z,20.70
2022-12-12T22:44:33.327Z,18.40
2022-12-12T22:47:05.864Z,17.10
2022-12-12T22:49:38.239Z,15.80
2022-12-12T22:52:10.521Z,21.20
2022-12-12T22:54:42.862Z,19.30
2022-12-12T22:57:15.476Z,19.00
2022-12-12T23:00:06.598Z,19.40
2022-12-12T23:02:38.942Z,17.90
2022-12-12T23:05:12.427Z,19.30
2022-12-12T23:07:44.998Z,18.80
2022-12-12T23:10:17.978Z,19.50
2022-12-12T23:12:50.343Z,18.30
2022-12-12T23:15:22.735Z,18.00
2022-12-12T23:17:55.030Z,18.50
2022-12-12T23:20:27.491Z,20.90
2022-12-12T23:22:59.777Z,18.40
2022-12-12T23:25:32.176Z,16.90
2022-12-12T23:28:06.272Z,18.30
2022-12-12T23:30:41.738Z,17.70
2022-12-12T23:33:14.009Z,18.10
2022-12-12T23:35:50.756Z,22.30
2022-12-12T23:38:23.620Z,18.50
2022-12-12T23:40:55.952Z,15.00
2022-12-12T23:43:29.205Z,18.80
2022-12-12T23:46:04.471Z,14.50
2022-12-12T23:48:37.210Z,18.50
2022-12-12T23:51:09.553Z,17.40
2022-12-12T23:53:41.869Z,14.50
2022-12-12T23:56:14.105Z,17.30
2022-12-12T23:58:46.435Z,17.80
